createdAt,value
2022-07-28T00:00:43.926Z,1.27
2022-07-28T00:03:10.640Z,1.35
2022-07-28T00:05:37.346Z,1.30
2022-07-28T00:08:03.991Z,1.20
2022-07-28T00:10:32.139Z,1.30
2022-07-28T00:12:59.844Z,1.40
2022-07-28T00:15:27.347Z,1.20
2022-07-28T00:17:53.887Z,1.23
2022-07-28T00:20:20.966Z,1.17
2022-07-28T00:22:47.477Z,1.38
2022-07-28T00:25:14.031Z,1.30
2022-07-28T00:27:40.609Z,1.27
2022-07-28T00:30:08.312Z,1.10
2022-07-28T00:32:35.036Z,1.30
2022-07-28T00:35:02.420Z,1.20
2022-07-28T00:37:29.228Z,1.50
2022-07-28T00:39:56.123Z,1.20
2022-07-28T00:42:22.737Z,1.27
2022-07-28T00:44:49.284Z,1.10
2022-07-28T00:47:15.851Z,1.27
2022-07-28T00:49:44.767Z,1.10
2022-07-28T00:52:12.344Z,1.63
2022-07-28T00:54:39.105Z,1.40
2022-07-28T00:57:05.602Z,1.52
2022-07-28T00:59:33.832Z,1.42
2022-07-28T01:02:01.338Z,1.58
2022-07-28T01:04:28.496Z,1.85
2022-07-28T01:07:32.960Z,1.80
2022-07-28T01:12:44.616Z,1.42
2022-07-28T01:15:28.045Z,1.60
2022-07-28T01:18:07.272Z,1.40
2022-07-28T01:20:41.948Z,1.63
2022-07-28T01:23:11.310Z,1.70
2022-07-28T01:25:55.830Z,2.28
2022-07-28T01:28:58.109Z,1.60
2022-07-28T01:31:26.724Z,1.95
2022-07-28T01:33:57.248Z,1.60
2022-07-28T01:36:32.116Z,1.60
2022-07-28T01:38:59.469Z,1.83
2022-07-28T01:41:28.794Z,1.70
2022-07-28T01:43:59.292Z,1.70
2022-07-28T01:46:26.908Z,1.67
2022-07-28T01:48:55.062Z,2.08
2022-07-28T01:51:22.775Z,1.52
2022-07-28T01:53:51.633Z,1.55
2022-07-28T01:56:19.294Z,1.40
2022-07-28T01:58:47.328Z,1.60
2022-07-28T02:01:14.735Z,1.70
2022-07-28T02:03:41.684Z,1.80
2022-07-28T02:06:08.942Z,1.77
2022-07-28T02:08:38.495Z,1.52
2022-07-28T02:11:23.543Z,1.40
2022-07-28T02:13:50.282Z,1.75
2022-07-28T02:16:18.206Z,1.73
2022-07-28T02:18:45.334Z,1.52
2022-07-28T02:21:12.458Z,1.65
2022-07-28T02:23:39.327Z,1.80
2022-07-28T02:26:09.456Z,1.65
2022-07-28T02:28:36.528Z,1.75
2022-07-28T02:31:11.446Z,1.30
2022-07-28T02:33:59.971Z,2.05
2022-07-28T02:36:30.905Z,2.22
2022-07-28T02:39:02.995Z,2.00
2022-07-28T02:41:30.084Z,1.63
2022-07-28T02:44:07.569Z,1.90
2022-07-28T02:46:39.081Z,1.88
2022-07-28T02:49:10.917Z,1.98
2022-07-28T02:51:38.012Z,1.77
2022-07-28T02:54:04.806Z,1.70
2022-07-28T02:56:31.667Z,2.15
2022-07-28T02:58:58.733Z,1.90
2022-07-28T03:01:25.671Z,1.83
2022-07-28T03:03:55.393Z,2.00
2022-07-28T03:06:26.433Z,1.92
2022-07-28T03:08:55.229Z,1.67
2022-07-28T03:11:21.757Z,1.67
2022-07-28T03:13:48.254Z,1.90
2022-07-28T03:16:14.809Z,2.50
2022-07-28T03:18:41.337Z,2.65
2022-07-28T03:21:08.653Z,2.20
2022-07-28T03:23:39.726Z,2.17
2022-07-28T03:26:11.231Z,2.10
2022-07-28T03:28:38.920Z,2.45
2022-07-28T03:31:08.515Z,2.20
2022-07-28T03:33:35.429Z,2.15
2022-07-28T03:36:07.003Z,2.50
2022-07-28T03:38:37.645Z,2.20
2022-07-28T03:41:04.766Z,2.22
2022-07-28T03:43:31.723Z,2.60
2022-07-28T03:45:58.275Z,2.60
2022-07-28T03:48:31.730Z,2.40
2022-07-28T03:50:58.679Z,2.70
2022-07-28T03:53:26.738Z,2.20
2022-07-28T03:55:53.841Z,2.30
2022-07-28T03:58:28.439Z,2.30
2022-07-28T04:00:55.433Z,2.38
2022-07-28T04:03:35.062Z,2.40
2022-07-28T04:06:08.533Z,2.10
2022-07-28T04:08:35.048Z,2.20
2022-07-28T04:11:01.568Z,2.33
2022-07-28T04:13:28.280Z,2.28
2022-07-28T04:15:54.800Z,2.30
2022-07-28T04:18:21.326Z,2.10
2022-07-28T04:20:47.854Z,2.60
2022-07-28T04:23:14.384Z,2.28
2022-07-28T04:25:40.961Z,2.05
2022-07-28T04:28:07.523Z,2.22
2022-07-28T04:30:34.089Z,2.40
2022-07-28T04:33:00.820Z,2.42
2022-07-28T04:35:28.270Z,2.35
2022-07-28T04:38:00.796Z,2.20
2022-07-28T04:40:27.634Z,2.15
2022-07-28T04:42:54.779Z,2.20
2022-07-28T04:45:21.534Z,2.22
2022-07-28T04:47:48.041Z,2.33
2022-07-28T04:50:16.067Z,2.35
2022-07-28T04:52:42.693Z,2.20
2022-07-28T04:55:09.257Z,2.20
2022-07-28T04:57:35.774Z,1.95
2022-07-28T05:00:05.081Z,2.10
2022-07-28T05:02:31.603Z,1.90
2022-07-28T05:04:58.415Z,2.25
2022-07-28T05:07:24.974Z,2.13
2022-07-28T05:09:51.468Z,2.08
2022-07-28T05:12:17.974Z,2.35
2022-07-28T05:14:44.479Z,2.08
2022-07-28T05:17:11.005Z,2.30
2022-07-28T05:19:37.550Z,2.00
2022-07-28T05:22:04.345Z,2.30
2022-07-28T05:24:30.878Z,1.88
2022-07-28T05:26:57.525Z,2.10
2022-07-28T05:29:24.330Z,2.40
2022-07-28T05:31:50.948Z,1.90
2022-07-28T05:34:17.744Z,1.70
2022-07-28T05:36:44.362Z,1.75
2022-07-28T05:39:10.879Z,2.00
2022-07-28T05:41:37.532Z,1.92
2022-07-28T05:44:04.016Z,1.60
2022-07-28T05:46:30.645Z,1.80
2022-07-28T05:48:57.218Z,2.00
2022-07-28T05:51:23.776Z,1.70
2022-07-28T05:53:50.275Z,1.70
2022-07-28T05:56:16.835Z,1.80
2022-07-28T05:58:43.324Z,1.70
2022-07-28T06:01:10.055Z,1.52
2022-07-28T06:03:41.792Z,1.60
2022-07-28T06:06:15.005Z,1.17
2022-07-28T06:08:42.943Z,1.40
2022-07-28T06:11:09.825Z,1.38
2022-07-28T06:13:37.566Z,1.50
2022-07-28T06:16:07.403Z,1.48
2022-07-28T06:18:37.632Z,1.20
2022-07-28T06:21:04.153Z,1.30
2022-07-28T06:23:30.681Z,1.40
2022-07-28T06:25:57.188Z,1.60
2022-07-28T06:28:23.749Z,1.52
2022-07-28T06:30:50.321Z,1.30
2022-07-28T06:33:17.509Z,1.48
2022-07-28T06:35:50.015Z,1.40
2022-07-28T06:38:19.481Z,1.23
2022-07-28T06:40:46.298Z,1.30
2022-07-28T06:43:14.417Z,1.10
2022-07-28T06:45:40.947Z,1.30
2022-07-28T06:48:08.129Z,1.02
2022-07-28T06:50:34.638Z,1.35
2022-07-28T06:53:01.636Z,1.40
2022-07-28T06:55:34.343Z,1.10
2022-07-28T06:58:02.371Z,1.63
2022-07-28T07:00:28.973Z,1.50
2022-07-28T07:02:55.515Z,1.13
2022-07-28T07:05:22.014Z,1.10
2022-07-28T07:07:48.628Z,1.08
2022-07-28T07:10:15.188Z,1.45
2022-07-28T07:12:41.727Z,1.13
2022-07-28T07:15:08.797Z,1.20
2022-07-28T07:17:37.368Z,1.17
2022-07-28T07:20:08.163Z,1.55
2022-07-28T07:22:35.580Z,1.15
2022-07-28T07:25:15.757Z,1.23
2022-07-28T07:27:42.491Z,1.05
2022-07-28T07:30:09.974Z,1.08
2022-07-28T07:32:37.354Z,1.27
2022-07-28T07:35:04.508Z,1.10
2022-07-28T07:37:32.598Z,1.10
2022-07-28T07:40:00.534Z,1.00
2022-07-28T07:42:27.520Z,1.10
2022-07-28T07:44:54.148Z,1.30
2022-07-28T07:47:20.873Z,1.40
2022-07-28T07:49:47.376Z,1.52
2022-07-28T07:52:14.651Z,1.30
2022-07-28T07:54:41.720Z,1.23
2022-07-28T07:57:08.291Z,1.30
2022-07-28T07:59:35.053Z,1.40
2022-07-28T08:02:01.973Z,1.38
2022-07-28T08:04:29.024Z,1.48
2022-07-28T08:06:56.247Z,1.10
2022-07-28T08:09:23.075Z,1.20
2022-07-28T08:11:49.643Z,1.17
2022-07-28T08:14:17.623Z,1.00
2022-07-28T08:16:44.579Z,1.10
2022-07-28T08:19:12.121Z,1.25
2022-07-28T08:21:39.330Z,1.13
2022-07-28T08:24:06.206Z,1.35
2022-07-28T08:26:32.770Z,1.48
2022-07-28T08:28:59.399Z,1.30
2022-07-28T08:31:26.268Z,1.27
2022-07-28T08:33:54.738Z,1.30
2022-07-28T08:36:22.325Z,1.20
2022-07-28T08:38:48.859Z,1.10
2022-07-28T08:41:26.633Z,1.00
2022-07-28T08:44:02.876Z,1.33
2022-07-28T08:46:35.392Z,1.08
2022-07-28T08:49:05.374Z,1.42
2022-07-28T08:51:31.913Z,0.95
2022-07-28T08:53:58.953Z,1.05
2022-07-28T08:56:25.467Z,1.27
2022-07-28T08:58:51.995Z,1.20
2022-07-28T09:01:18.577Z,1.27
2022-07-28T09:03:45.257Z,1.15
2022-07-28T09:06:11.841Z,1.05
2022-07-28T09:08:38.363Z,1.10
2022-07-28T09:11:06.790Z,1.15
2022-07-28T09:13:34.581Z,1.15
2022-07-28T09:16:01.154Z,0.98
2022-07-28T09:18:27.758Z,1.17
2022-07-28T09:20:54.291Z,1.35
2022-07-28T09:23:42.901Z,1.10
2022-07-28T09:26:11.370Z,1.20
2022-07-28T09:28:55.437Z,1.02
2022-07-28T09:31:23.451Z,0.82
2022-07-28T09:34:00.964Z,0.88
2022-07-28T09:36:29.132Z,1.00
2022-07-28T09:38:56.714Z,1.00
2022-07-28T09:41:23.855Z,0.80
2022-07-28T09:43:54.832Z,0.98
2022-07-28T09:46:24.428Z,0.90
2022-07-28T09:48:58.166Z,1.10
2022-07-28T09:51:29.621Z,0.90
2022-07-28T09:54:17.504Z,0.90
2022-07-28T09:56:45.470Z,1.10
2022-07-28T09:59:14.829Z,1.10
2022-07-28T10:01:56.914Z,0.90
2022-07-28T10:04:30.653Z,0.82
2022-07-28T10:07:03.857Z,1.00
2022-07-28T10:09:30.377Z,0.93
2022-07-28T10:12:17.200Z,0.85
2022-07-28T10:14:43.795Z,1.00
2022-07-28T10:17:10.606Z,0.98
2022-07-28T10:19:37.878Z,1.25
2022-07-28T10:22:04.861Z,0.80
2022-07-28T10:24:34.640Z,1.00
2022-07-28T10:27:02.823Z,0.85
2022-07-28T10:29:31.666Z,0.75
2022-07-28T10:32:04.950Z,0.90
2022-07-28T10:34:33.801Z,0.73
2022-07-28T10:37:03.186Z,0.73
2022-07-28T10:39:42.415Z,0.80
2022-07-28T10:42:13.309Z,0.95
2022-07-28T10:44:41.553Z,0.93
2022-07-28T10:47:18.108Z,0.80
2022-07-28T10:49:48.715Z,0.80
2022-07-28T10:52:45.429Z,0.90
2022-07-28T10:55:32.169Z,0.75
2022-07-28T10:58:11.569Z,0.75
2022-07-28T11:01:02.189Z,0.90
2022-07-28T11:03:47.294Z,0.80
2022-07-28T11:06:36.712Z,0.85
2022-07-28T11:09:15.470Z,0.90
2022-07-28T11:11:57.877Z,0.60
2022-07-28T11:14:37.587Z,0.98
2022-07-28T11:17:04.672Z,0.77
2022-07-28T11:20:00.948Z,0.73
2022-07-28T11:22:30.343Z,0.82
2022-07-28T11:25:19.715Z,0.90
2022-07-28T11:27:52.525Z,0.90
2022-07-28T11:30:19.544Z,0.98
2022-07-28T11:32:53.385Z,0.77
2022-07-28T11:35:26.570Z,0.80
2022-07-28T11:38:02.486Z,0.80
2022-07-28T11:40:38.509Z,0.88
2022-07-28T11:43:35.300Z,0.93
2022-07-28T11:46:04.654Z,0.70
2022-07-28T11:48:34.463Z,0.90
2022-07-28T11:51:04.178Z,0.68
2022-07-28T11:53:46.591Z,0.95
2022-07-28T11:56:15.840Z,0.95
2022-07-28T11:58:43.117Z,0.90
2022-07-28T12:01:19.225Z,1.00
2022-07-28T12:03:55.863Z,0.98
2022-07-28T12:06:28.798Z,0.77
2022-07-28T12:11:27.993Z,0.90
2022-07-28T12:14:07.152Z,1.00
2022-07-28T12:16:35.821Z,0.80
2022-07-28T12:19:03.843Z,1.00
2022-07-28T12:21:48.032Z,0.93
2022-07-28T12:24:19.123Z,0.93
2022-07-28T12:26:49.593Z,1.00
2022-07-28T12:29:16.981Z,1.10
2022-07-28T12:31:58.870Z,0.90
2022-07-28T12:34:29.146Z,1.05
2022-07-28T12:36:57.700Z,1.10
2022-07-28T12:39:25.955Z,1.15
2022-07-28T12:42:08.530Z,1.23
2022-07-28T12:44:36.935Z,0.85
2022-07-28T12:47:04.561Z,1.23
2022-07-28T12:49:31.055Z,1.15
2022-07-28T12:51:59.136Z,0.98
2022-07-28T12:54:36.621Z,1.00
2022-07-28T12:57:03.644Z,0.82
2022-07-28T12:59:34.718Z,1.05
2022-07-28T13:02:02.741Z,0.82
2022-07-28T13:04:49.984Z,0.98
2022-07-28T13:07:19.499Z,0.85
2022-07-28T13:09:53.183Z,1.00
2022-07-28T13:12:27.128Z,0.98
2022-07-28T13:14:55.506Z,1.00
2022-07-28T13:17:23.559Z,0.70
2022-07-28T13:19:50.605Z,1.00
2022-07-28T13:22:27.667Z,1.08
2022-07-28T13:24:54.475Z,0.80
2022-07-28T13:27:20.978Z,1.05
2022-07-28T13:29:47.514Z,0.90
2022-07-28T13:32:14.131Z,1.00
2022-07-28T13:34:42.317Z,1.05
2022-07-28T13:37:09.235Z,1.10
2022-07-28T13:39:36.382Z,1.20
2022-07-28T13:42:05.475Z,0.98
2022-07-28T13:44:33.698Z,1.02
2022-07-28T13:47:01.371Z,1.10
2022-07-28T13:49:28.895Z,1.33
2022-07-28T13:51:55.594Z,1.00
2022-07-28T13:54:22.659Z,0.95
2022-07-28T13:56:50.664Z,1.08
2022-07-28T13:59:17.358Z,1.00
2022-07-28T14:01:44.183Z,0.90
2022-07-28T14:04:17.625Z,1.03
2022-07-28T14:06:45.502Z,1.10
2022-07-28T14:09:17.891Z,0.98
2022-07-28T14:11:49.746Z,1.10
2022-07-28T14:14:20.132Z,1.10
2022-07-28T14:16:47.835Z,0.80
2022-07-28T14:19:16.426Z,1.17
2022-07-28T14:21:50.208Z,0.85
2022-07-28T14:24:17.361Z,1.27
2022-07-28T14:26:44.298Z,0.90
2022-07-28T14:29:11.578Z,1.10
2022-07-28T14:31:38.546Z,0.82
2022-07-28T14:34:05.140Z,1.08
2022-07-28T14:36:31.843Z,1.10
2022-07-28T14:38:58.421Z,0.82
2022-07-28T14:41:25.787Z,1.13
2022-07-28T14:43:52.747Z,1.17
2022-07-28T14:46:21.849Z,0.90
2022-07-28T14:48:48.805Z,1.48
2022-07-28T14:51:15.458Z,1.05
2022-07-28T14:53:49.940Z,0.90
2022-07-28T14:56:18.614Z,0.90
2022-07-28T14:58:45.128Z,0.98
2022-07-28T15:01:12.225Z,1.00
2022-07-28T15:03:43.109Z,1.00
2022-07-28T15:06:10.541Z,1.10
2022-07-28T15:08:37.096Z,1.10
2022-07-28T15:11:04.194Z,0.85
2022-07-28T15:13:30.704Z,1.00
2022-07-28T15:16:00.027Z,0.90
2022-07-28T15:18:26.833Z,1.00
2022-07-28T15:20:55.940Z,0.90
2022-07-28T15:23:22.887Z,0.90
2022-07-28T15:25:49.453Z,1.00
2022-07-28T15:28:17.600Z,1.00
2022-07-28T15:30:51.190Z,0.77
2022-07-28T15:33:20.381Z,1.00
2022-07-28T15:35:57.799Z,1.10
2022-07-28T15:38:27.651Z,1.00
2022-07-28T15:40:54.267Z,0.90
2022-07-28T15:43:23.767Z,0.80
2022-07-28T15:45:50.957Z,0.90
2022-07-28T15:48:17.540Z,0.90
2022-07-28T15:50:48.295Z,1.20
2022-07-28T15:53:15.661Z,1.08
2022-07-28T15:55:43.534Z,0.90
2022-07-28T15:58:13.002Z,0.93
2022-07-28T16:00:39.504Z,0.90
2022-07-28T16:03:06.823Z,1.10
2022-07-28T16:05:33.419Z,0.90
2022-07-28T16:08:00.262Z,1.13
2022-07-28T16:10:33.158Z,1.08
2022-07-28T16:12:59.979Z,1.00
2022-07-28T16:15:27.133Z,1.08
2022-07-28T16:17:54.887Z,1.02
2022-07-28T16:20:22.049Z,0.90
2022-07-28T16:22:49.947Z,1.00
2022-07-28T16:25:16.945Z,0.98
2022-07-28T16:27:44.409Z,0.98
2022-07-28T16:30:11.938Z,0.93
2022-07-28T16:32:39.739Z,1.05
2022-07-28T16:35:07.196Z,0.90
2022-07-28T16:37:35.066Z,1.20
2022-07-28T16:40:03.472Z,0.90
2022-07-28T16:42:30.179Z,0.90
2022-07-28T16:44:57.127Z,1.05
2022-07-28T16:47:23.828Z,1.20
2022-07-28T16:49:50.373Z,0.98
2022-07-28T16:52:16.918Z,0.80
2022-07-28T16:54:43.561Z,0.80
2022-07-28T16:57:10.126Z,0.90
2022-07-28T16:59:37.517Z,0.93
2022-07-28T17:02:19.028Z,1.10
2022-07-28T17:04:46.630Z,1.00
2022-07-28T17:07:13.437Z,0.88
2022-07-28T17:09:39.969Z,1.05
2022-07-28T17:12:07.481Z,1.20
2022-07-28T17:14:33.973Z,0.93
2022-07-28T17:17:00.491Z,0.90
2022-07-28T17:19:26.988Z,0.75
2022-07-28T17:22:01.098Z,1.20
2022-07-28T17:24:30.342Z,1.23
2022-07-28T17:29:44.321Z,0.90
2022-07-28T17:32:11.267Z,1.17
2022-07-28T17:34:37.842Z,1.13
2022-07-28T17:37:05.455Z,0.95
2022-07-28T17:39:32.154Z,1.20
2022-07-28T17:41:58.733Z,0.93
2022-07-28T17:44:25.227Z,1.40
2022-07-28T17:46:51.851Z,1.10
2022-07-28T17:49:18.500Z,1.30
2022-07-28T17:51:45.105Z,1.00
2022-07-28T17:54:14.093Z,0.93
2022-07-28T17:56:41.467Z,1.00
2022-07-28T17:59:08.529Z,0.90
2022-07-28T18:01:35.327Z,0.93
2022-07-28T18:04:01.957Z,0.98
2022-07-28T18:06:34.433Z,1.10
2022-07-28T18:09:07.930Z,1.40
2022-07-28T18:11:37.765Z,0.93
2022-07-28T18:14:22.899Z,0.98
2022-07-28T18:16:49.406Z,0.95
2022-07-28T18:19:15.996Z,0.75
2022-07-28T18:21:43.600Z,1.00
2022-07-28T18:24:10.226Z,1.05
2022-07-28T18:26:36.887Z,1.40
2022-07-28T18:29:03.438Z,1.05
2022-07-28T18:31:30.208Z,1.10
2022-07-28T18:33:56.987Z,1.00
2022-07-28T18:36:23.608Z,1.00
2022-07-28T18:38:50.118Z,1.08
2022-07-28T18:41:17.221Z,0.90
2022-07-28T18:43:43.739Z,1.08
2022-07-28T18:46:10.317Z,1.02
2022-07-28T18:48:37.959Z,1.10
2022-07-28T18:51:04.598Z,1.10
2022-07-28T18:53:31.204Z,1.17
2022-07-28T18:55:58.126Z,1.27
2022-07-28T18:58:25.421Z,1.02
2022-07-28T19:00:51.925Z,1.40
2022-07-28T19:03:18.510Z,1.38
2022-07-28T19:05:46.327Z,1.20
2022-07-28T19:08:13.406Z,1.38
2022-07-28T19:10:39.951Z,1.00
2022-07-28T19:13:10.286Z,1.15
2022-07-28T19:15:40.592Z,1.20
2022-07-28T19:18:09.765Z,1.25
2022-07-28T19:20:39.710Z,1.20
2022-07-28T19:23:06.412Z,1.10
2022-07-28T19:25:37.571Z,1.10
2022-07-28T19:28:04.891Z,1.00
2022-07-28T19:30:35.060Z,1.10
2022-07-28T19:33:02.970Z,1.25
2022-07-28T19:35:30.434Z,1.00
2022-07-28T19:37:59.744Z,1.05
2022-07-28T19:40:29.384Z,0.93
2022-07-28T19:42:56.838Z,0.80
2022-07-28T19:45:23.941Z,1.02
2022-07-28T19:47:50.466Z,1.15
2022-07-28T19:50:17.452Z,1.20
2022-07-28T19:52:44.032Z,1.00
2022-07-28T19:55:11.234Z,1.08
2022-07-28T19:57:39.902Z,1.27
2022-07-28T20:00:07.519Z,1.17
2022-07-28T20:02:34.179Z,1.10
2022-07-28T20:05:00.788Z,1.20
2022-07-28T20:07:27.353Z,1.02
2022-07-28T20:09:54.039Z,1.17
2022-07-28T20:12:20.551Z,1.00
2022-07-28T20:14:47.069Z,1.30
2022-07-28T20:17:29.513Z,1.30
2022-07-28T20:20:00.081Z,1.05
2022-07-28T20:22:26.614Z,1.20
2022-07-28T20:24:55.558Z,1.13
2022-07-28T20:27:23.173Z,1.38
2022-07-28T20:29:49.716Z,1.20
2022-07-28T20:32:16.234Z,1.13
2022-07-28T20:34:44.065Z,1.23
2022-07-28T20:37:18.972Z,0.93
2022-07-28T20:39:57.061Z,1.17
2022-07-28T20:42:23.644Z,1.05
2022-07-28T20:44:51.414Z,1.27
2022-07-28T20:47:18.912Z,1.30
2022-07-28T20:49:45.440Z,1.20
2022-07-28T20:52:12.027Z,1.10
2022-07-28T20:54:38.715Z,1.30
2022-07-28T20:57:05.321Z,1.33
2022-07-28T20:59:31.945Z,1.10
2022-07-28T21:01:58.609Z,1.10
2022-07-28T21:04:26.266Z,1.10
2022-07-28T21:06:55.456Z,1.27
2022-07-28T21:09:28.552Z,1.30
2022-07-28T21:11:55.392Z,1.30
2022-07-28T21:14:23.523Z,1.23
2022-07-28T21:16:52.444Z,1.20
2022-07-28T21:19:19.020Z,1.10
2022-07-28T21:21:45.559Z,1.30
2022-07-28T21:24:12.275Z,1.05
2022-07-28T21:26:41.699Z,1.30
2022-07-28T21:29:12.601Z,1.50
2022-07-28T21:32:04.306Z,1.30
2022-07-28T21:34:30.856Z,1.45
2022-07-28T21:36:58.439Z,1.35
2022-07-28T21:39:25.404Z,1.83
2022-07-28T21:41:52.057Z,1.50
2022-07-28T21:44:19.121Z,1.40
2022-07-28T21:46:46.007Z,1.23
2022-07-28T21:49:12.841Z,1.40
2022-07-28T21:51:40.563Z,1.45
2022-07-28T21:54:07.109Z,1.58
2022-07-28T21:56:34.760Z,1.52
2022-07-28T21:59:01.811Z,1.50
2022-07-28T22:01:28.821Z,1.52
2022-07-28T22:03:55.651Z,1.52
2022-07-28T22:06:22.785Z,1.33
2022-07-28T22:08:53.366Z,1.65
2022-07-28T22:11:21.551Z,1.50
2022-07-28T22:13:48.055Z,1.60
2022-07-28T22:16:14.660Z,1.60
2022-07-28T22:18:41.215Z,1.70
2022-07-28T22:21:07.729Z,1.70
2022-07-28T22:23:34.461Z,1.60
2022-07-28T22:26:01.105Z,2.08
2022-07-28T22:28:30.695Z,1.70
2022-07-28T22:30:58.333Z,1.40
2022-07-28T22:33:24.935Z,1.70
2022-07-28T22:35:51.622Z,1.65
2022-07-28T22:38:18.167Z,1.60
2022-07-28T22:40:44.704Z,1.67
2022-07-28T22:43:11.205Z,1.70
2022-07-28T22:45:49.457Z,1.70
2022-07-28T22:48:18.104Z,1.70
2022-07-28T22:50:44.674Z,1.90
2022-07-28T22:53:11.216Z,1.77
2022-07-28T22:55:37.760Z,1.60
2022-07-28T22:58:05.759Z,1.70
2022-07-28T23:00:32.878Z,1.77
2022-07-28T23:03:03.021Z,1.67
2022-07-28T23:05:30.481Z,1.45
2022-07-28T23:07:58.732Z,1.67
2022-07-28T23:10:25.818Z,1.75
2022-07-28T23:12:52.343Z,1.48
2022-07-28T23:15:18.869Z,1.42
2022-07-28T23:17:45.381Z,1.73
2022-07-28T23:20:11.954Z,2.00
2022-07-28T23:22:38.469Z,1.77
2022-07-28T23:25:05.436Z,1.70
2022-07-28T23:27:31.944Z,1.83
2022-07-28T23:29:58.431Z,1.80
2022-07-28T23:32:24.932Z,1.63
2022-07-28T23:34:51.472Z,2.13
2022-07-28T23:37:18.097Z,1.80
2022-07-28T23:39:44.749Z,1.90
2022-07-28T23:42:11.317Z,2.08
2022-07-28T23:44:37.977Z,1.80
2022-07-28T23:47:04.527Z,1.80
2022-07-28T23:49:31.179Z,2.00
2022-07-28T23:51:57.716Z,2.13
2022-07-28T23:54:24.256Z,1.67
2022-07-28T23:56:52.298Z,1.75
2022-07-28T23:59:18.796Z,1.90
